createdAt,value
2023-05-10T00:00:00.332Z,22.8
2023-05-10T00:02:00.230Z,22.7
2023-05-10T00:04:01.448Z,22.8
2023-05-10T00:06:04.431Z,22.7
2023-05-10T00:08:01.411Z,22.6
2023-05-10T00:10:00.057Z,22.6
2023-05-10T00:12:01.908Z,22.5
2023-05-10T00:14:01.522Z,22.5
2023-05-10T00:16:00.074Z,22.4
2023-05-10T00:18:04.631Z,22.3
2023-05-10T00:20:01.188Z,22.3
2023-05-10T00:22:00.034Z,22.1
2023-05-10T00:24:04.549Z,22.3
2023-05-10T00:26:12.078Z,22.2
2023-05-10T00:27:42.240Z,22.2
2023-05-10T00:30:00.294Z,22
2023-05-10T00:32:00.280Z,22
2023-05-10T00:34:00.044Z,22.1
2023-05-10T00:36:00.039Z,21.9
2023-05-10T00:38:01.481Z,21.7
2023-05-10T00:40:00.007Z,21.7
2023-05-10T00:41:59.983Z,21.7
2023-05-10T00:44:00.164Z,21.8
2023-05-10T00:46:00.050Z,21.7
2023-05-10T00:48:00.082Z,21.7
2023-05-10T00:50:00.052Z,21.8
2023-05-10T00:52:00.090Z,21.7
2023-05-10T00:54:00.047Z,21.5
2023-05-10T00:56:00.004Z,21.4
2023-05-10T00:58:00.177Z,21.3
2023-05-10T01:00:09.899Z,21.3
2023-05-10T01:02:10.567Z,21.2
2023-05-10T01:03:59.989Z,21.2
2023-05-10T01:05:59.995Z,21.1
2023-05-10T01:07:59.956Z,21.1
2023-05-10T01:09:59.972Z,21
2023-05-10T01:12:00.082Z,20.9
2023-05-10T01:13:59.975Z,21
2023-05-10T01:16:01.382Z,20.9
2023-05-10T01:18:00.082Z,20.8
2023-05-10T01:20:00.036Z,20.8
2023-05-10T01:22:00.089Z,20.7
2023-05-10T01:24:00.085Z,20.7
2023-05-10T01:26:22.744Z,20.8
2023-05-10T01:28:00.184Z,20.7
2023-05-10T01:30:13.907Z,20.7
2023-05-10T01:32:00.281Z,20.7
2023-05-10T01:34:04.525Z,20.7
2023-05-10T01:35:58.407Z,20.7
2023-05-10T01:36:01.345Z,20.5
2023-05-10T01:47:40.425Z,20.2
2023-05-10T01:49:08.938Z,20.3
2023-05-10T01:51:08.864Z,20.2
2023-05-10T01:53:08.917Z,20.2
2023-05-10T01:55:08.839Z,20.2
2023-05-10T01:57:08.861Z,20.1
2023-05-10T01:59:08.956Z,20.1
2023-05-10T02:01:10.267Z,20.1
2023-05-10T02:03:09.131Z,20
2023-05-10T02:05:08.875Z,20
2023-05-10T02:07:08.963Z,20.1
2023-05-10T02:09:10.137Z,20.1
2023-05-10T02:11:08.952Z,20.2
2023-05-10T02:13:08.950Z,20.1
2023-05-10T02:15:09.848Z,20.1
2023-05-10T02:17:08.774Z,20
2023-05-10T02:19:08.860Z,20.1
2023-05-10T02:21:08.769Z,20.1
2023-05-10T02:23:08.785Z,20
2023-05-10T02:25:08.779Z,20
2023-05-10T02:27:08.752Z,19.9
2023-05-10T02:29:08.820Z,19.8
2023-05-10T02:31:08.795Z,19.8
2023-05-10T02:33:08.789Z,19.8
2023-05-10T02:35:10.060Z,19.8
2023-05-10T02:37:08.910Z,19.8
2023-05-10T02:39:08.980Z,19.8
2023-05-10T02:41:09.206Z,19.8
2023-05-10T02:43:08.807Z,19.7
2023-05-10T02:45:08.767Z,19.7
2023-05-10T02:58:05.065Z,19.5
2023-05-10T02:59:08.761Z,19.4
2023-05-10T03:01:08.794Z,19.3
2023-05-10T03:03:08.797Z,19.3
2023-05-10T03:05:08.748Z,19.4
2023-05-10T03:07:08.846Z,19.3
2023-05-10T03:09:08.815Z,19.2
2023-05-10T03:11:08.913Z,19.2
2023-05-10T03:13:09.040Z,19.3
2023-05-10T03:15:08.893Z,19.3
2023-05-10T03:17:08.722Z,19.2
2023-05-10T03:19:08.751Z,19.2
2023-05-10T03:21:08.714Z,19.4
2023-05-10T03:23:08.720Z,19.3
2023-05-10T03:25:08.739Z,19.4
2023-05-10T03:27:08.704Z,19.2
2023-05-10T03:29:08.732Z,19.1
2023-05-10T03:31:08.724Z,19.1
2023-05-10T03:33:08.819Z,19.2
2023-05-10T03:35:08.702Z,19.3
2023-05-10T03:37:08.740Z,19.2
2023-05-10T03:39:08.722Z,19.2
2023-05-10T03:41:08.745Z,19.2
2023-05-10T03:43:08.710Z,19.2
2023-05-10T03:44:34.032Z,19.2
2023-05-10T03:45:10.176Z,19.2
2023-05-10T03:47:08.919Z,19.1
2023-05-10T03:49:08.690Z,19
2023-05-10T03:51:08.706Z,19
2023-05-10T03:53:08.672Z,19
2023-05-10T03:55:08.721Z,19.2
2023-05-10T03:57:08.652Z,19
2023-05-10T03:59:08.727Z,18.9
2023-05-10T04:01:08.701Z,18.9
2023-05-10T04:03:08.740Z,18.9
2023-05-10T04:05:08.714Z,18.9
2023-05-10T04:07:08.671Z,18.9
2023-05-10T04:09:08.673Z,18.8
2023-05-10T04:11:08.692Z,18.8
2023-05-10T04:13:08.800Z,18.7
2023-05-10T04:15:09.851Z,18.8
2023-05-10T04:17:08.824Z,18.7
2023-05-10T04:19:08.657Z,18.7
2023-05-10T04:21:08.693Z,18.6
2023-05-10T04:23:11.298Z,18.6
2023-05-10T04:25:08.788Z,18.6
2023-05-10T04:27:08.762Z,18.6
2023-05-10T04:29:08.660Z,18.5
2023-05-10T04:31:08.696Z,18.4
2023-05-10T04:33:08.696Z,18.4
2023-05-10T04:35:08.693Z,18.5
2023-05-10T04:37:08.729Z,18.4
2023-05-10T04:39:08.656Z,18.4
2023-05-10T04:41:08.653Z,18.4
2023-05-10T04:43:08.635Z,18.3
2023-05-10T04:45:09.799Z,18.4
2023-05-10T04:47:10.495Z,18.3
2023-05-10T04:49:34.958Z,18.3
2023-05-10T04:57:38.575Z,18.2
2023-05-10T04:58:59.398Z,18.2
2023-05-10T05:00:59.395Z,18.1
2023-05-10T05:02:59.452Z,18.1
2023-05-10T05:04:59.421Z,18.1
2023-05-10T05:06:59.390Z,18.1
2023-05-10T05:08:59.416Z,18
2023-05-10T05:10:59.398Z,18
2023-05-10T05:12:59.423Z,17.9
2023-05-10T05:14:59.380Z,17.9
2023-05-10T05:16:59.386Z,17.8
2023-05-10T05:18:59.392Z,17.8
2023-05-10T05:20:59.475Z,17.8
2023-05-10T05:22:59.354Z,17.7
2023-05-10T05:24:59.414Z,17.7
2023-05-10T05:26:59.384Z,17.6
2023-05-10T05:28:59.411Z,17.5
2023-05-10T05:30:59.410Z,17.5
2023-05-10T05:32:59.356Z,17.4
2023-05-10T05:34:59.376Z,17.4
2023-05-10T05:36:59.438Z,17.4
2023-05-10T05:38:59.527Z,17.3
2023-05-10T05:40:59.386Z,17.3
2023-05-10T05:42:59.362Z,17.2
2023-05-10T05:44:59.369Z,17.3
2023-05-10T05:46:59.472Z,17.2
2023-05-10T05:48:59.351Z,17.1
2023-05-10T05:50:59.611Z,17.1
2023-05-10T05:52:59.398Z,17.1
2023-05-10T05:54:59.321Z,17.1
2023-05-10T05:57:01.155Z,17
2023-05-10T05:58:59.338Z,17
2023-05-10T06:00:59.375Z,17
2023-05-10T06:02:59.448Z,17
2023-05-10T06:04:59.417Z,17
2023-05-10T06:06:59.332Z,17
2023-05-10T06:09:01.891Z,16.9
2023-05-10T06:10:59.371Z,16.8
2023-05-10T06:12:59.409Z,16.8
2023-05-10T06:14:59.293Z,16.8
2023-05-10T06:16:59.573Z,16.7
2023-05-10T06:18:59.310Z,16.6
2023-05-10T06:20:59.316Z,16.5
2023-05-10T06:22:59.294Z,16.5
2023-05-10T06:24:59.322Z,16.6
2023-05-10T06:26:59.285Z,16.6
2023-05-10T06:28:59.283Z,16.6
2023-05-10T06:31:00.757Z,16.5
2023-05-10T06:32:59.415Z,16.5
2023-05-10T06:34:59.292Z,16.5
2023-05-10T06:36:59.322Z,16.4
2023-05-10T06:38:59.313Z,16.4
2023-05-10T06:40:59.446Z,16.4
2023-05-10T06:42:59.264Z,16.4
2023-05-10T06:44:59.277Z,16.5
2023-05-10T06:46:59.253Z,16.4
2023-05-10T06:48:59.265Z,16.4
2023-05-10T06:50:59.277Z,16.4
2023-05-10T06:52:59.252Z,16.4
2023-05-10T06:54:59.274Z,16.4
2023-05-10T06:57:00.075Z,16.3
2023-05-10T06:58:59.275Z,16.3
2023-05-10T07:00:59.268Z,16.2
2023-05-10T07:02:59.486Z,16.2
2023-05-10T07:05:00.956Z,16.3
2023-05-10T07:07:01.777Z,16.2
2023-05-10T07:08:59.264Z,16.2
2023-05-10T07:10:59.255Z,16.2
2023-05-10T07:13:00.706Z,16.1
2023-05-10T07:14:59.301Z,16.2
2023-05-10T07:16:59.262Z,16.1
2023-05-10T07:18:59.241Z,16.1
2023-05-10T07:20:59.299Z,16
2023-05-10T07:22:59.225Z,15.9
2023-05-10T07:24:59.224Z,15.9
2023-05-10T07:26:59.196Z,15.9
2023-05-10T07:28:59.286Z,15.9
2023-05-10T07:30:59.290Z,15.9
2023-05-10T07:32:59.252Z,15.9
2023-05-10T07:34:59.236Z,15.9
2023-05-10T07:36:59.261Z,15.9
2023-05-10T07:38:59.295Z,15.8
2023-05-10T07:40:59.222Z,15.8
2023-05-10T07:42:59.197Z,15.8
2023-05-10T07:45:00.333Z,15.9
2023-05-10T07:46:59.241Z,15.8
2023-05-10T07:49:00.842Z,15.8
2023-05-10T07:50:59.270Z,15.8
2023-05-10T07:52:59.199Z,15.8
2023-05-10T07:54:59.228Z,15.8
2023-05-10T07:56:59.213Z,15.8
2023-05-10T07:58:59.218Z,15.7
2023-05-10T08:00:59.165Z,15.7
2023-05-10T08:02:59.239Z,15.6
2023-05-10T08:04:59.224Z,15.6
2023-05-10T08:06:59.199Z,15.6
2023-05-10T08:08:59.185Z,15.6
2023-05-10T08:10:59.179Z,15.5
2023-05-10T08:12:59.163Z,15.5
2023-05-10T08:14:59.165Z,15.6
2023-05-10T08:16:59.281Z,15.5
2023-05-10T08:18:59.361Z,15.5
2023-05-10T08:20:59.194Z,15.5
2023-05-10T08:22:59.191Z,15.5
2023-05-10T08:24:59.144Z,15.5
2023-05-10T08:26:59.133Z,15.5
2023-05-10T08:28:59.132Z,15.5
2023-05-10T08:30:59.205Z,15.5
2023-05-10T08:32:59.260Z,15.4
2023-05-10T08:34:59.148Z,15.5
2023-05-10T08:36:59.154Z,15.4
2023-05-10T08:38:59.122Z,15.4
2023-05-10T08:40:59.185Z,15.4
2023-05-10T08:42:59.109Z,15.4
2023-05-10T08:44:59.188Z,15.4
2023-05-10T08:46:59.225Z,15.4
2023-05-10T08:48:59.145Z,15.3
2023-05-10T08:50:59.117Z,15.3
2023-05-10T08:52:59.187Z,15.3
2023-05-10T08:54:59.116Z,15.4
2023-05-10T08:56:59.110Z,15.3
2023-05-10T08:58:59.099Z,15.3
2023-05-10T09:00:59.205Z,15.3
2023-05-10T09:02:59.158Z,15.2
2023-05-10T09:04:59.161Z,15.3
2023-05-10T09:06:59.120Z,15.3
2023-05-10T09:08:59.212Z,15.2
2023-05-10T09:10:59.109Z,15.2
2023-05-10T09:12:59.593Z,15.2
2023-05-10T09:14:59.143Z,15.2
2023-05-10T09:16:59.219Z,15.2
2023-05-10T09:18:59.218Z,15.2
2023-05-10T09:20:59.080Z,15.1
2023-05-10T09:22:59.118Z,15.1
2023-05-10T09:24:59.164Z,15.2
2023-05-10T09:26:59.297Z,15.2
2023-05-10T09:28:59.095Z,15.1
2023-05-10T09:30:59.106Z,15.1
2023-05-10T09:32:59.113Z,15.1
2023-05-10T09:34:59.062Z,15.1
2023-05-10T09:36:59.102Z,15.1
2023-05-10T09:38:59.066Z,15.1
2023-05-10T09:40:59.089Z,15
2023-05-10T09:42:59.069Z,15
2023-05-10T09:44:59.464Z,15.1
2023-05-10T09:46:59.230Z,15.1
2023-05-10T09:48:59.082Z,15
2023-05-10T09:50:59.135Z,15
2023-05-10T09:52:59.106Z,15
2023-05-10T09:54:59.295Z,15
2023-05-10T09:56:59.103Z,14.8
2023-05-10T09:58:59.109Z,14.8
2023-05-10T10:00:59.190Z,14.9
2023-05-10T10:02:59.124Z,14.9
2023-05-10T10:04:59.382Z,15
2023-05-10T10:07:00.209Z,15
2023-05-10T10:08:59.148Z,15
2023-05-10T10:10:59.074Z,15
2023-05-10T10:12:59.043Z,15
2023-05-10T10:14:59.396Z,15.1
2023-05-10T10:17:07.972Z,15.1
2023-05-10T10:18:59.408Z,15
2023-05-10T10:20:59.014Z,15.1
2023-05-10T10:22:59.027Z,15.1
2023-05-10T10:24:59.010Z,15.2
2023-05-10T10:26:59.021Z,15.1
2023-05-10T10:28:59.520Z,15.1
2023-05-10T10:31:00.524Z,15.1
2023-05-10T10:32:59.194Z,15.2
2023-05-10T10:34:59.066Z,15.3
2023-05-10T10:36:59.152Z,15.2
2023-05-10T10:38:59.130Z,15.2
2023-05-10T10:40:59.179Z,15.2
2023-05-10T10:42:59.187Z,15.2
2023-05-10T10:44:59.096Z,15.4
2023-05-10T10:46:59.064Z,15.4
2023-05-10T10:48:58.986Z,15.4
2023-05-10T10:50:59.027Z,15.4
2023-05-10T10:53:00.351Z,15.4
2023-05-10T10:54:59.004Z,15.5
2023-05-10T10:57:01.546Z,15.5
2023-05-10T10:58:59.015Z,15.5
2023-05-10T11:00:59.110Z,15.6
2023-05-10T11:02:59.090Z,15.6
2023-05-10T11:04:59.073Z,15.8
2023-05-10T11:07:06.667Z,15.7
2023-05-10T11:08:58.996Z,15.7
2023-05-10T11:10:59.238Z,15.8
2023-05-10T11:12:59.028Z,15.9
2023-05-10T11:14:59.299Z,16
2023-05-10T11:16:59.178Z,16
2023-05-10T11:19:03.648Z,16.1
2023-05-10T11:20:59.041Z,16.1
2023-05-10T11:22:58.991Z,16.2
2023-05-10T11:25:00.437Z,16.3
2023-05-10T11:27:01.481Z,16.3
2023-05-10T11:29:01.482Z,16.4
2023-05-10T11:31:00.281Z,16.5
2023-05-10T11:32:59.032Z,16.5
2023-05-10T11:34:59.049Z,16.7
2023-05-10T11:36:59.232Z,16.7
2023-05-10T11:38:58.968Z,16.8
2023-05-10T11:40:58.947Z,16.9
2023-05-10T11:42:58.938Z,17
2023-05-10T11:45:00.545Z,17.2
2023-05-10T11:46:59.062Z,17.2
2023-05-10T11:48:59.013Z,17.2
2023-05-10T11:50:58.929Z,17.5
2023-05-10T11:52:58.942Z,17.5
2023-05-10T11:54:59.045Z,17.7
2023-05-10T11:56:58.964Z,17.8
2023-05-10T11:58:58.966Z,17.7
2023-05-10T12:01:00.280Z,17.8
2023-05-10T12:02:59.166Z,18
2023-05-10T12:04:59.208Z,18.2
2023-05-10T12:06:58.983Z,18.4
2023-05-10T12:08:58.977Z,18.6
2023-05-10T12:10:59.034Z,18.8
2023-05-10T12:12:58.951Z,18.8
2023-05-10T12:14:59.191Z,19
2023-05-10T12:16:58.958Z,19.2
2023-05-10T12:18:59.082Z,19.4
2023-05-10T12:20:59.055Z,19.7
2023-05-10T12:23:00.460Z,19.9
2023-05-10T12:24:58.945Z,20.1
2023-05-10T12:28:04.747Z,20.2
2023-05-10T12:28:59.079Z,20.5
2023-05-10T12:30:58.903Z,20.6
2023-05-10T12:32:58.954Z,21
2023-05-10T12:35:00.218Z,21.6
2023-05-10T12:36:58.938Z,21.8
2023-05-10T12:39:00.058Z,21.8
2023-05-10T12:40:59.119Z,22.2
2023-05-10T12:43:00.406Z,22.3
2023-05-10T13:42:38.681Z,25
2023-05-10T13:45:25.862Z,24.8
2023-05-10T13:47:28.548Z,25.2
2023-05-10T13:49:30.233Z,25
2023-05-10T13:51:27.075Z,25.1
2023-05-10T13:53:41.137Z,25
2023-05-10T13:55:27.482Z,25
2023-05-10T13:57:27.192Z,25
2023-05-10T13:59:30.351Z,25.3
2023-05-10T14:01:26.058Z,24.9
2023-05-10T14:03:25.941Z,25
2023-05-10T14:05:26.573Z,25.2
2023-05-10T14:07:25.874Z,25
2023-05-10T14:09:25.908Z,24.8
2023-05-10T14:11:25.805Z,24.8
2023-05-10T14:13:25.799Z,25
2023-05-10T14:15:25.768Z,25.1
2023-05-10T14:17:25.939Z,24.7
2023-05-10T14:19:26.003Z,24.8
2023-05-10T14:21:30.183Z,24.8
2023-05-10T14:23:27.045Z,25.2
2023-05-10T14:25:26.019Z,25.2
2023-05-10T14:27:25.903Z,25.2
2023-05-10T14:29:26.888Z,24.9
2023-05-10T14:31:33.610Z,25.1
2023-05-10T14:33:25.931Z,25.3
2023-05-10T14:35:26.000Z,25.2
2023-05-10T14:37:27.348Z,25
2023-05-10T14:39:25.898Z,24.9
2023-05-10T14:41:25.858Z,24.9
2023-05-10T14:43:25.780Z,25
2023-05-10T14:45:26.117Z,25.1
2023-05-10T14:47:25.828Z,25
2023-05-10T14:49:25.936Z,25.2
2023-05-10T14:51:26.804Z,25.3
2023-05-10T14:53:25.859Z,25.1
2023-05-10T14:55:27.265Z,25.2
2023-05-10T14:57:25.994Z,25.3
2023-05-10T14:59:27.077Z,25.5
2023-05-10T15:01:27.209Z,25.5
2023-05-10T15:03:25.841Z,25.5
2023-05-10T15:05:25.882Z,25.6
2023-05-10T15:07:25.932Z,25.6
2023-05-10T15:09:25.862Z,25.5
2023-05-10T15:11:25.719Z,25.3
2023-05-10T15:13:06.192Z,25.3
2023-05-10T15:13:25.797Z,26
2023-05-10T15:15:25.810Z,25.7
2023-05-10T15:17:25.973Z,25.7
2023-05-10T15:19:25.691Z,25.6
2023-05-10T15:21:32.108Z,26
2023-05-10T15:23:28.346Z,26.3
2023-05-10T15:25:27.568Z,26.2
2023-05-10T15:27:25.871Z,26.2
2023-05-10T15:29:25.862Z,26.1
2023-05-10T15:31:27.089Z,25.8
2023-05-10T15:33:26.885Z,26
2023-05-10T15:35:25.739Z,26.4
2023-05-10T15:37:25.659Z,27
2023-05-10T15:39:30.069Z,27
2023-05-10T15:41:25.903Z,27.2
2023-05-10T15:43:25.771Z,27.3
2023-05-10T15:45:25.914Z,27.3
2023-05-10T15:47:26.849Z,27.3
2023-05-10T15:49:27.316Z,27.5
2023-05-10T15:51:32.080Z,27.5
2023-05-10T15:53:28.276Z,27.6
2023-05-10T15:55:26.929Z,27.7
2023-05-10T15:57:30.277Z,27.8
2023-05-10T15:59:25.827Z,28.2
2023-05-10T16:01:25.731Z,28.2
2023-05-10T16:03:25.836Z,28.2
2023-05-10T16:05:28.276Z,28.2
2023-05-10T16:07:25.704Z,28.1
2023-05-10T16:09:26.787Z,28.4
2023-05-10T16:11:36.148Z,28.5
2023-05-10T16:13:25.701Z,28.6
2023-05-10T16:15:25.796Z,28.6
2023-05-10T16:17:37.764Z,28.8
2023-05-10T16:19:29.097Z,28.6
2023-05-10T16:21:25.757Z,29
2023-05-10T16:23:25.799Z,28.7
2023-05-10T16:25:25.698Z,29.1
2023-05-10T16:27:25.648Z,29.1
2023-05-10T16:29:25.772Z,29.3
2023-05-10T16:31:25.777Z,29
2023-05-10T16:33:26.893Z,28.7
2023-05-10T16:35:25.730Z,28.8
2023-05-10T16:37:25.860Z,28.7
2023-05-10T16:39:25.839Z,29.1
2023-05-10T16:41:28.269Z,29.3
2023-05-10T16:43:26.253Z,29.1
2023-05-10T16:45:25.764Z,29.3
2023-05-10T16:47:25.942Z,29.3
2023-05-10T16:49:26.359Z,29.2
2023-05-10T16:51:25.779Z,29.4
2023-05-10T16:53:25.796Z,29.3
2023-05-10T16:55:28.282Z,29.4
2023-05-10T16:57:25.867Z,29.2
2023-05-10T16:59:35.988Z,29.2
2023-05-10T17:01:27.430Z,29.5
2023-05-10T17:03:25.734Z,29.8
2023-05-10T17:05:30.124Z,29.7
2023-05-10T17:35:20.803Z,30.3
2023-05-10T17:35:49.648Z,30.5
2023-05-10T17:37:49.604Z,30.4
2023-05-10T17:39:49.769Z,30.4
2023-05-10T17:41:49.579Z,30.2
2023-05-10T17:43:57.902Z,30.2
2023-05-10T17:45:50.629Z,30.4
2023-05-10T17:47:50.916Z,30.6
2023-05-10T17:49:49.691Z,30.4
2023-05-10T17:51:49.644Z,30.5
2023-05-10T17:53:49.656Z,30.7
2023-05-10T17:55:49.693Z,30.7
2023-05-10T17:57:51.797Z,30.6
2023-05-10T17:59:49.683Z,30.5
2023-05-10T18:01:49.860Z,30.4
2023-05-10T18:03:52.154Z,30.5
2023-05-10T18:05:50.916Z,30.7
2023-05-10T18:07:51.653Z,30.8
2023-05-10T18:09:49.603Z,30.6
2023-05-10T18:11:55.657Z,30.4
2023-05-10T18:14:18.640Z,30.5
2023-05-10T18:15:50.725Z,31
2023-05-10T18:17:52.668Z,31
2023-05-10T18:34:25.672Z,30.8
2023-05-10T18:35:46.697Z,30.7
2023-05-10T18:37:46.647Z,30.9
2023-05-10T18:39:46.655Z,30.8
2023-05-10T18:41:46.808Z,30.8
2023-05-10T18:43:46.660Z,30.7
2023-05-10T18:45:46.650Z,30.8
2023-05-10T18:47:46.733Z,30.9
2023-05-10T18:49:46.704Z,30.8
2023-05-10T18:51:46.638Z,30.8
2023-05-10T18:53:46.685Z,30.7
2023-05-10T18:55:46.729Z,30.7
2023-05-10T18:57:46.705Z,31
2023-05-10T18:59:46.709Z,30.8
2023-05-10T19:01:49.546Z,31.1
2023-05-10T19:03:46.643Z,31
2023-05-10T19:05:47.882Z,31
2023-05-10T19:07:46.774Z,31
2023-05-10T19:09:46.623Z,31.1
2023-05-10T19:11:46.674Z,31
2023-05-10T19:13:48.244Z,31
2023-05-10T19:15:46.621Z,30.9
2023-05-10T19:17:46.826Z,31.3
2023-05-10T19:19:46.713Z,31
2023-05-10T19:21:47.088Z,30.9
2023-05-10T19:23:46.688Z,30.6
2023-05-10T19:25:46.922Z,30.6
2023-05-10T19:27:46.821Z,30.8
2023-05-10T19:29:46.635Z,30.8
2023-05-10T19:32:13.876Z,30.9
2023-05-10T19:33:46.959Z,30.8
2023-05-10T19:35:47.871Z,30.7
2023-05-10T19:37:46.697Z,30.9
2023-05-10T19:39:46.538Z,30.8
2023-05-10T19:41:48.124Z,30.9
2023-05-10T19:43:48.081Z,30.9
2023-05-10T19:45:46.625Z,30.8
2023-05-10T19:47:46.850Z,31
2023-05-10T19:49:49.191Z,30.8
2023-05-10T19:51:46.618Z,31
2023-05-10T19:53:46.590Z,31.1
2023-05-10T19:55:47.891Z,31.3
2023-05-10T19:57:47.951Z,31.1
2023-05-10T19:59:46.551Z,31.1
2023-05-10T20:01:46.566Z,31.1
2023-05-10T20:03:49.273Z,30.9
2023-05-10T20:05:46.734Z,30.9
2023-05-10T20:07:46.667Z,31
2023-05-10T20:09:47.120Z,31.2
2023-05-10T20:11:46.572Z,31.3
2023-05-10T20:13:46.646Z,31.2
2023-05-10T20:15:46.663Z,31
2023-05-10T20:17:46.780Z,30.9
2023-05-10T20:19:46.689Z,30.9
2023-05-10T20:21:46.826Z,30.9
2023-05-10T20:23:46.491Z,30.9
2023-05-10T20:25:46.597Z,30.9
2023-05-10T20:27:46.596Z,31
2023-05-10T20:29:47.791Z,30.8
2023-05-10T20:31:46.522Z,30.8
2023-05-10T20:33:49.137Z,30.8
2023-05-10T20:35:46.764Z,31
2023-05-10T20:37:46.569Z,31
2023-05-10T20:39:47.925Z,30.8
2023-05-10T20:41:46.606Z,30.7
2023-05-10T20:43:46.658Z,30.6
2023-05-10T20:45:46.540Z,30.7
2023-05-10T20:47:46.612Z,30.9
2023-05-10T20:49:46.564Z,30.8
2023-05-10T20:51:46.501Z,30.7
2023-05-10T20:53:46.513Z,30.5
2023-05-10T20:55:46.554Z,30.3
2023-05-10T20:57:46.495Z,30.5
2023-05-10T20:59:46.646Z,30.6
2023-05-10T21:01:47.236Z,30.4
2023-05-10T21:03:48.042Z,30.3
2023-05-10T21:05:46.658Z,30.4
2023-05-10T21:07:46.724Z,30.4
2023-05-10T21:09:46.506Z,30.5
2023-05-10T21:11:47.799Z,30.2
2023-05-10T21:13:46.756Z,30.1
2023-05-10T21:15:46.583Z,30.1
2023-05-10T21:17:48.214Z,30.1
2023-05-10T21:19:46.474Z,29.9
2023-05-10T21:21:46.562Z,29.9
2023-05-10T21:23:46.462Z,29.8
2023-05-10T21:25:46.547Z,29.6
2023-05-10T21:27:46.766Z,29.8
2023-05-10T21:29:46.492Z,29.8
2023-05-10T21:31:46.578Z,29.7
2023-05-10T21:33:46.467Z,29.8
2023-05-10T21:35:46.557Z,29.5
2023-05-10T21:37:49.226Z,29.6
2023-05-10T21:39:46.580Z,29.4
2023-05-10T21:41:46.511Z,29.4
2023-05-10T21:43:47.547Z,29.3
2023-05-10T21:45:46.496Z,29.2
2023-05-10T21:47:46.687Z,29.2
2023-05-10T21:49:49.069Z,29
2023-05-10T21:51:46.510Z,29
2023-05-10T21:53:46.529Z,28.9
2023-05-10T21:55:46.648Z,29
2023-05-10T21:57:46.466Z,28.9
2023-05-10T21:59:46.567Z,28.9
2023-05-10T22:01:49.300Z,28.7
2023-05-10T22:03:46.551Z,28.5
2023-05-10T22:05:46.532Z,28.3
2023-05-10T22:07:46.406Z,28.4
2023-05-10T22:09:46.533Z,28.3
2023-05-10T22:11:46.496Z,28.2
2023-05-10T22:13:46.372Z,28.1
2023-05-10T22:15:46.448Z,28.1
2023-05-10T22:17:46.523Z,28.2
2023-05-10T22:19:47.580Z,28
2023-05-10T22:21:46.511Z,28
2023-05-10T22:23:47.605Z,27.8
2023-05-10T22:25:46.390Z,27.6
2023-05-10T22:27:46.563Z,27.7
2023-05-10T22:29:46.682Z,27.6
2023-05-10T22:31:46.460Z,27.3
2023-05-10T22:33:46.388Z,27.2
2023-05-10T22:35:46.530Z,27
2023-05-10T22:37:46.584Z,27
2023-05-10T22:39:46.466Z,26.8
2023-05-10T22:41:46.412Z,26.7
2023-05-10T22:43:46.414Z,26.6
2023-05-10T22:45:50.687Z,27
2023-05-10T22:47:46.405Z,28.2
2023-05-10T22:49:47.550Z,28.7
2023-05-10T22:51:46.696Z,29
2023-05-10T22:53:47.740Z,29
2023-05-10T22:55:47.648Z,29
2023-05-10T22:57:46.341Z,29.1
2023-05-10T22:59:46.334Z,29
2023-05-10T23:01:46.485Z,29
2023-05-10T23:03:46.443Z,28.8
2023-05-10T23:05:46.436Z,28.7
2023-05-10T23:07:46.406Z,28.7
2023-05-10T23:09:46.365Z,28.6
2023-05-10T23:11:46.451Z,28.5
2023-05-10T23:13:46.528Z,28.3
2023-05-10T23:15:46.524Z,27.9
2023-05-10T23:17:51.126Z,27.5
2023-05-10T23:19:46.418Z,26.8
2023-05-10T23:21:46.345Z,26.3
2023-05-10T23:23:46.369Z,25.9
2023-05-10T23:25:46.342Z,25.7
2023-05-10T23:27:46.381Z,25.3
2023-05-10T23:29:46.315Z,24.8
2023-05-10T23:31:46.352Z,24.5
2023-05-10T23:33:47.675Z,24.2
2023-05-10T23:35:46.386Z,23.9
2023-05-10T23:37:46.350Z,23.8
2023-05-10T23:39:46.523Z,23.5
2023-05-10T23:41:46.426Z,23.2
2023-05-10T23:43:46.282Z,23
2023-05-10T23:45:46.457Z,22.8
2023-05-10T23:47:46.374Z,22.7
2023-05-10T23:49:46.499Z,22.4
2023-05-10T23:51:46.341Z,22.2
2023-05-10T23:53:46.481Z,22.1
2023-05-10T23:55:46.464Z,21.8
2023-05-10T23:57:46.772Z,21.7
2023-05-10T23:59:46.423Z,21.5
